sensor_id;sensor_type;location;lat;lon;timestamp;temperature;humidity
22738;DHT22;11536;50.860;4.286;2022-11-24T00:01:29;10.10;99.90
22738;DHT22;11536;50.860;4.286;2022-11-24T00:03:56;10.10;99.90
22738;DHT22;11536;50.860;4.286;2022-11-24T00:06:22;10.10;99.90
22738;DHT22;11536;50.860;4.286;2022-11-24T00:08:48;10.10;99.90
22738;DHT22;11536;50.860;4.286;2022-11-24T00:11:25;10.10;99.90
22738;DHT22;11536;50.860;4.286;2022-11-24T00:13:51;10.10;99.90
22738;DHT22;11536;50.860;4.286;2022-11-24T00:16:23;10.10;99.90
22738;DHT22;11536;50.860;4.286;2022-11-24T00:18:51;10.10;99.90
22738;DHT22;11536;50.860;4.286;2022-11-24T00:21:18;10.10;99.90
22738;DHT22;11536;50.860;4.286;2022-11-24T00:23:44;10.10;99.90
22738;DHT22;11536;50.860;4.286;2022-11-24T00:26:18;10.10;99.90
22738;DHT22;11536;50.860;4.286;2022-11-24T00:28:46;10.10;99.90
22738;DHT22;11536;50.860;4.286;2022-11-24T00:31:22;10.10;99.90
22738;DHT22;11536;50.860;4.286;2022-11-24T00:33:49;10.10;99.90
22738;DHT22;11536;50.860;4.286;2022-11-24T00:36:17;10.10;99.90
22738;DHT22;11536;50.860;4.286;2022-11-24T00:38:44;10.10;99.90
22738;DHT22;11536;50.860;4.286;2022-11-24T00:41:09;10.10;99.90
22738;DHT22;11536;50.860;4.286;2022-11-24T00:43:35;10.10;99.90
22738;DHT22;11536;50.860;4.286;2022-11-24T00:46:01;10.10;99.90
22738;DHT22;11536;50.860;4.286;2022-11-24T00:48:27;10.10;99.90
22738;DHT22;11536;50.860;4.286;2022-11-24T00:51:01;10.20;99.90
22738;DHT22;11536;50.860;4.286;2022-11-24T00:53:27;10.20;99.90
22738;DHT22;11536;50.860;4.286;2022-11-24T00:55:53;10.20;99.90
22738;DHT22;11536;50.860;4.286;2022-11-24T00:58:20;10.20;99.90
22738;DHT22;11536;50.860;4.286;2022-11-24T01:00:45;10.20;99.90
22738;DHT22;11536;50.860;4.286;2022-11-24T01:03:15;10.30;99.90
22738;DHT22;11536;50.860;4.286;2022-11-24T01:05:41;10.30;99.90
22738;DHT22;11536;50.860;4.286;2022-11-24T01:08:07;10.30;99.90
22738;DHT22;11536;50.860;4.286;2022-11-24T01:10:33;10.30;99.90
22738;DHT22;11536;50.860;4.286;2022-11-24T01:12:59;10.30;99.90
22738;DHT22;11536;50.860;4.286;2022-11-24T01:15:25;10.30;99.90
22738;DHT22;11536;50.860;4.286;2022-11-24T01:17:51;10.40;99.90
22738;DHT22;11536;50.860;4.286;2022-11-24T01:20:17;10.40;99.90
22738;DHT22;11536;50.860;4.286;2022-11-24T01:22:43;10.30;99.90
22738;DHT22;11536;50.860;4.286;2022-11-24T01:25:10;10.40;99.90
22738;DHT22;11536;50.860;4.286;2022-11-24T01:27:36;10.30;99.90
22738;DHT22;11536;50.860;4.286;2022-11-24T01:30:03;10.40;99.90
22738;DHT22;11536;50.860;4.286;2022-11-24T01:32:29;10.30;99.90
22738;DHT22;11536;50.860;4.286;2022-11-24T01:34:58;10.40;99.90
22738;DHT22;11536;50.860;4.286;2022-11-24T01:37:23;10.40;99.90
22738;DHT22;11536;50.860;4.286;2022-11-24T01:39:49;10.40;99.90
22738;DHT22;11536;50.860;4.286;2022-11-24T01:42:15;10.40;99.90
22738;DHT22;11536;50.860;4.286;2022-11-24T01:44:40;10.50;99.90
22738;DHT22;11536;50.860;4.286;2022-11-24T01:47:28;10.50;99.90
22738;DHT22;11536;50.860;4.286;2022-11-24T01:49:58;10.50;99.90
22738;DHT22;11536;50.860;4.286;2022-11-24T01:52:37;10.50;99.90
22738;DHT22;11536;50.860;4.286;2022-11-24T01:55:07;10.50;99.90
22738;DHT22;11536;50.860;4.286;2022-11-24T01:57:41;10.50;99.90
22738;DHT22;11536;50.860;4.286;2022-11-24T02:00:10;10.50;99.90
22738;DHT22;11536;50.860;4.286;2022-11-24T02:02:36;10.50;99.90
22738;DHT22;11536;50.860;4.286;2022-11-24T02:05:05;10.50;99.90
22738;DHT22;11536;50.860;4.286;2022-11-24T02:07:33;10.50;99.90
22738;DHT22;11536;50.860;4.286;2022-11-24T02:10:07;10.50;99.90
22738;DHT22;11536;50.860;4.286;2022-11-24T02:12:33;10.50;99.90
22738;DHT22;11536;50.860;4.286;2022-11-24T02:14:59;10.60;99.90
22738;DHT22;11536;50.860;4.286;2022-11-24T02:17:25;10.50;99.90
22738;DHT22;11536;50.860;4.286;2022-11-24T02:19:57;10.60;99.90
22738;DHT22;11536;50.860;4.286;2022-11-24T02:22:53;10.60;99.90
22738;DHT22;11536;50.860;4.286;2022-11-24T02:27:50;10.60;99.90
22738;DHT22;11536;50.860;4.286;2022-11-24T02:30:16;10.60;99.90
22738;DHT22;11536;50.860;4.286;2022-11-24T02:32:42;10.60;99.90
22738;DHT22;11536;50.860;4.286;2022-11-24T02:35:10;10.60;99.90
22738;DHT22;11536;50.860;4.286;2022-11-24T02:37:36;10.60;99.90
22738;DHT22;11536;50.860;4.286;2022-11-24T02:40:02;10.60;99.90
22738;DHT22;11536;50.860;4.286;2022-11-24T02:42:32;10.60;99.90
22738;DHT22;11536;50.860;4.286;2022-11-24T02:45:00;10.60;99.90
22738;DHT22;11536;50.860;4.286;2022-11-24T02:47:26;10.60;99.90
22738;DHT22;11536;50.860;4.286;2022-11-24T02:49:52;10.60;99.90
22738;DHT22;11536;50.860;4.286;2022-11-24T02:52:17;10.60;99.90
22738;DHT22;11536;50.860;4.286;2022-11-24T02:54:43;10.50;99.90
22738;DHT22;11536;50.860;4.286;2022-11-24T02:57:09;10.50;99.90
22738;DHT22;11536;50.860;4.286;2022-11-24T02:59:35;10.50;99.90
22738;DHT22;11536;50.860;4.286;2022-11-24T03:02:00;10.50;99.90
22738;DHT22;11536;50.860;4.286;2022-11-24T03:04:27;10.50;99.90
22738;DHT22;11536;50.860;4.286;2022-11-24T03:06:52;10.50;99.90
22738;DHT22;11536;50.860;4.286;2022-11-24T03:09:18;10.40;99.90
22738;DHT22;11536;50.860;4.286;2022-11-24T03:11:44;10.40;99.90
22738;DHT22;11536;50.860;4.286;2022-11-24T03:14:09;10.40;99.90
22738;DHT22;11536;50.860;4.286;2022-11-24T03:16:35;10.40;99.90
22738;DHT22;11536;50.860;4.286;2022-11-24T03:19:00;10.40;99.90
22738;DHT22;11536;50.860;4.286;2022-11-24T03:21:26;10.40;99.90
22738;DHT22;11536;50.860;4.286;2022-11-24T03:23:52;10.40;99.90
22738;DHT22;11536;50.860;4.286;2022-11-24T03:26:19;10.40;99.90
22738;DHT22;11536;50.860;4.286;2022-11-24T03:28:45;10.40;99.90
22738;DHT22;11536;50.860;4.286;2022-11-24T03:31:12;10.40;99.90
22738;DHT22;11536;50.860;4.286;2022-11-24T03:33:38;10.50;99.90
22738;DHT22;11536;50.860;4.286;2022-11-24T03:36:05;10.40;99.90
22738;DHT22;11536;50.860;4.286;2022-11-24T03:38:30;10.40;99.90
22738;DHT22;11536;50.860;4.286;2022-11-24T03:40:56;10.40;99.90
22738;DHT22;11536;50.860;4.286;2022-11-24T03:43:21;10.40;99.90
22738;DHT22;11536;50.860;4.286;2022-11-24T03:45:48;10.40;99.90
22738;DHT22;11536;50.860;4.286;2022-11-24T03:48:18;10.30;99.90
22738;DHT22;11536;50.860;4.286;2022-11-24T03:50:55;10.30;99.90
22738;DHT22;11536;50.860;4.286;2022-11-24T03:53:21;10.30;99.90
22738;DHT22;11536;50.860;4.286;2022-11-24T03:55:47;10.20;99.90
22738;DHT22;11536;50.860;4.286;2022-11-24T03:58:12;10.20;99.90
22738;DHT22;11536;50.860;4.286;2022-11-24T04:00:38;10.20;99.90
22738;DHT22;11536;50.860;4.286;2022-11-24T04:03:04;10.20;99.90
22738;DHT22;11536;50.860;4.286;2022-11-24T04:05:29;10.20;99.90
22738;DHT22;11536;50.860;4.286;2022-11-24T04:07:55;10.10;99.90
22738;DHT22;11536;50.860;4.286;2022-11-24T04:10:22;10.10;99.90
22738;DHT22;11536;50.860;4.286;2022-11-24T04:12:48;10.10;99.90
22738;DHT22;11536;50.860;4.286;2022-11-24T04:15:16;10.10;99.90
22738;DHT22;11536;50.860;4.286;2022-11-24T04:17:43;10.10;99.90
22738;DHT22;11536;50.860;4.286;2022-11-24T04:20:10;10.00;99.90
22738;DHT22;11536;50.860;4.286;2022-11-24T04:22:35;10.00;99.90
22738;DHT22;11536;50.860;4.286;2022-11-24T04:25:02;10.00;99.90
22738;DHT22;11536;50.860;4.286;2022-11-24T04:27:28;10.00;99.90
22738;DHT22;11536;50.860;4.286;2022-11-24T04:29:53;10.00;99.90
22738;DHT22;11536;50.860;4.286;2022-11-24T04:32:19;9.90;99.90
22738;DHT22;11536;50.860;4.286;2022-11-24T04:34:45;9.90;99.90
22738;DHT22;11536;50.860;4.286;2022-11-24T04:37:11;9.90;99.90
22738;DHT22;11536;50.860;4.286;2022-11-24T04:39:36;9.90;99.90
22738;DHT22;11536;50.860;4.286;2022-11-24T04:42:02;9.90;99.90
22738;DHT22;11536;50.860;4.286;2022-11-24T04:44:27;9.90;99.90
22738;DHT22;11536;50.860;4.286;2022-11-24T04:46:53;9.90;99.90
22738;DHT22;11536;50.860;4.286;2022-11-24T04:49:19;9.90;99.90
22738;DHT22;11536;50.860;4.286;2022-11-24T04:51:45;9.80;99.90
22738;DHT22;11536;50.860;4.286;2022-11-24T04:54:12;9.90;99.90
22738;DHT22;11536;50.860;4.286;2022-11-24T04:56:41;9.80;99.90
22738;DHT22;11536;50.860;4.286;2022-11-24T04:59:07;9.80;99.90
22738;DHT22;11536;50.860;4.286;2022-11-24T05:01:35;9.80;99.90
22738;DHT22;11536;50.860;4.286;2022-11-24T05:04:01;9.70;99.90
22738;DHT22;11536;50.860;4.286;2022-11-24T05:06:26;9.70;99.90
22738;DHT22;11536;50.860;4.286;2022-11-24T05:08:52;9.70;99.90
22738;DHT22;11536;50.860;4.286;2022-11-24T05:11:18;9.70;99.90
22738;DHT22;11536;50.860;4.286;2022-11-24T05:13:44;9.70;99.90
22738;DHT22;11536;50.860;4.286;2022-11-24T05:16:10;9.60;99.90
22738;DHT22;11536;50.860;4.286;2022-11-24T05:18:36;9.60;99.90
22738;DHT22;11536;50.860;4.286;2022-11-24T05:21:03;9.60;99.90
22738;DHT22;11536;50.860;4.286;2022-11-24T05:23:29;9.60;99.90
22738;DHT22;11536;50.860;4.286;2022-11-24T05:25:59;9.60;99.90
22738;DHT22;11536;50.860;4.286;2022-11-24T05:28:25;9.60;99.90
22738;DHT22;11536;50.860;4.286;2022-11-24T05:30:51;9.50;99.90
22738;DHT22;11536;50.860;4.286;2022-11-24T05:33:17;9.60;99.90
22738;DHT22;11536;50.860;4.286;2022-11-24T05:35:48;9.60;99.90
22738;DHT22;11536;50.860;4.286;2022-11-24T05:38:15;9.60;99.90
22738;DHT22;11536;50.860;4.286;2022-11-24T05:40:41;9.50;99.90
22738;DHT22;11536;50.860;4.286;2022-11-24T05:43:14;9.50;99.90
22738;DHT22;11536;50.860;4.286;2022-11-24T05:45:40;9.50;99.90
22738;DHT22;11536;50.860;4.286;2022-11-24T05:48:07;9.50;99.90
22738;DHT22;11536;50.860;4.286;2022-11-24T05:50:34;9.50;99.90
22738;DHT22;11536;50.860;4.286;2022-11-24T05:53:11;9.60;99.90
22738;DHT22;11536;50.860;4.286;2022-11-24T05:55:37;9.60;99.90
22738;DHT22;11536;50.860;4.286;2022-11-24T05:58:05;9.50;99.90
22738;DHT22;11536;50.860;4.286;2022-11-24T06:00:32;9.60;99.90
22738;DHT22;11536;50.860;4.286;2022-11-24T06:02:58;9.60;99.90
22738;DHT22;11536;50.860;4.286;2022-11-24T06:05:25;9.60;99.90
22738;DHT22;11536;50.860;4.286;2022-11-24T06:07:51;9.60;99.90
22738;DHT22;11536;50.860;4.286;2022-11-24T06:10:17;9.60;99.90
22738;DHT22;11536;50.860;4.286;2022-11-24T06:12:44;9.50;99.90
22738;DHT22;11536;50.860;4.286;2022-11-24T06:15:10;9.50;99.90
22738;DHT22;11536;50.860;4.286;2022-11-24T06:17:36;9.50;99.90
22738;DHT22;11536;50.860;4.286;2022-11-24T06:20:03;9.50;99.90
22738;DHT22;11536;50.860;4.286;2022-11-24T06:22:29;9.50;99.90
22738;DHT22;11536;50.860;4.286;2022-11-24T06:24:55;9.50;99.90
22738;DHT22;11536;50.860;4.286;2022-11-24T06:27:21;9.40;99.90
22738;DHT22;11536;50.860;4.286;2022-11-24T06:29:46;9.40;99.90
22738;DHT22;11536;50.860;4.286;2022-11-24T06:32:12;9.40;99.90
22738;DHT22;11536;50.860;4.286;2022-11-24T06:34:38;9.40;99.90
22738;DHT22;11536;50.860;4.286;2022-11-24T06:37:04;9.50;99.90
22738;DHT22;11536;50.860;4.286;2022-11-24T06:39:30;9.40;99.90
22738;DHT22;11536;50.860;4.286;2022-11-24T06:41:59;9.30;99.90
22738;DHT22;11536;50.860;4.286;2022-11-24T06:44:24;9.40;99.90
22738;DHT22;11536;50.860;4.286;2022-11-24T06:46:50;9.40;99.90
22738;DHT22;11536;50.860;4.286;2022-11-24T06:49:16;9.30;99.90
22738;DHT22;11536;50.860;4.286;2022-11-24T06:51:41;9.30;99.90
22738;DHT22;11536;50.860;4.286;2022-11-24T06:54:08;9.30;99.90
22738;DHT22;11536;50.860;4.286;2022-11-24T06:56:35;9.20;99.90
22738;DHT22;11536;50.860;4.286;2022-11-24T06:59:01;9.30;99.90
22738;DHT22;11536;50.860;4.286;2022-11-24T07:01:28;9.30;99.90
22738;DHT22;11536;50.860;4.286;2022-11-24T07:03:54;9.20;99.90
22738;DHT22;11536;50.860;4.286;2022-11-24T07:06:22;9.40;99.90
22738;DHT22;11536;50.860;4.286;2022-11-24T07:08:47;9.20;99.90
22738;DHT22;11536;50.860;4.286;2022-11-24T07:11:19;9.40;99.90
22738;DHT22;11536;50.860;4.286;2022-11-24T07:13:46;9.20;99.90
22738;DHT22;11536;50.860;4.286;2022-11-24T07:16:23;9.20;99.90
22738;DHT22;11536;50.860;4.286;2022-11-24T07:18:50;9.20;99.90
22738;DHT22;11536;50.860;4.286;2022-11-24T07:21:17;9.20;99.90
22738;DHT22;11536;50.860;4.286;2022-11-24T07:23:49;9.20;99.90
22738;DHT22;11536;50.860;4.286;2022-11-24T07:26:16;9.20;99.90
22738;DHT22;11536;50.860;4.286;2022-11-24T07:28:41;9.20;99.90
22738;DHT22;11536;50.860;4.286;2022-11-24T07:31:09;9.10;99.90
22738;DHT22;11536;50.860;4.286;2022-11-24T07:33:36;9.10;99.90
22738;DHT22;11536;50.860;4.286;2022-11-24T07:36:03;9.10;99.90
22738;DHT22;11536;50.860;4.286;2022-11-24T07:38:30;9.10;99.90
22738;DHT22;11536;50.860;4.286;2022-11-24T07:41:03;9.20;99.90
22738;DHT22;11536;50.860;4.286;2022-11-24T07:43:30;9.10;99.90
22738;DHT22;11536;50.860;4.286;2022-11-24T07:45:56;9.10;99.90
22738;DHT22;11536;50.860;4.286;2022-11-24T07:48:22;9.10;99.90
22738;DHT22;11536;50.860;4.286;2022-11-24T07:50:48;9.10;99.90
22738;DHT22;11536;50.860;4.286;2022-11-24T07:53:14;9.10;99.90
22738;DHT22;11536;50.860;4.286;2022-11-24T07:55:39;9.10;99.90
22738;DHT22;11536;50.860;4.286;2022-11-24T07:58:05;9.10;99.90
22738;DHT22;11536;50.860;4.286;2022-11-24T08:00:31;9.10;99.90
22738;DHT22;11536;50.860;4.286;2022-11-24T08:02:56;9.10;99.90
22738;DHT22;11536;50.860;4.286;2022-11-24T08:05:24;9.10;99.90
22738;DHT22;11536;50.860;4.286;2022-11-24T08:07:50;9.10;99.90
22738;DHT22;11536;50.860;4.286;2022-11-24T08:10:16;9.10;99.90
22738;DHT22;11536;50.860;4.286;2022-11-24T08:12:42;9.10;99.90
22738;DHT22;11536;50.860;4.286;2022-11-24T08:15:08;9.10;99.90
22738;DHT22;11536;50.860;4.286;2022-11-24T08:17:34;9.10;99.90
22738;DHT22;11536;50.860;4.286;2022-11-24T08:20:00;9.20;99.90
22738;DHT22;11536;50.860;4.286;2022-11-24T08:22:26;9.10;99.90
22738;DHT22;11536;50.860;4.286;2022-11-24T08:24:51;9.20;99.90
22738;DHT22;11536;50.860;4.286;2022-11-24T08:27:17;9.20;99.90
22738;DHT22;11536;50.860;4.286;2022-11-24T08:29:44;9.20;99.90
22738;DHT22;11536;50.860;4.286;2022-11-24T08:32:10;9.20;99.90
22738;DHT22;11536;50.860;4.286;2022-11-24T08:34:37;9.20;99.90
22738;DHT22;11536;50.860;4.286;2022-11-24T08:37:06;9.20;99.90
22738;DHT22;11536;50.860;4.286;2022-11-24T08:39:34;9.30;99.90
22738;DHT22;11536;50.860;4.286;2022-11-24T08:42:00;9.30;99.90
22738;DHT22;11536;50.860;4.286;2022-11-24T08:44:25;9.30;99.90
22738;DHT22;11536;50.860;4.286;2022-11-24T08:46:53;9.40;99.90
22738;DHT22;11536;50.860;4.286;2022-11-24T08:49:19;9.40;99.90
22738;DHT22;11536;50.860;4.286;2022-11-24T08:51:46;9.40;99.90
22738;DHT22;11536;50.860;4.286;2022-11-24T08:54:13;9.50;99.90
22738;DHT22;11536;50.860;4.286;2022-11-24T08:56:40;9.50;99.90
22738;DHT22;11536;50.860;4.286;2022-11-24T08:59:06;9.50;99.90
22738;DHT22;11536;50.860;4.286;2022-11-24T09:01:32;9.50;99.90
22738;DHT22;11536;50.860;4.286;2022-11-24T09:03:58;9.60;99.90
22738;DHT22;11536;50.860;4.286;2022-11-24T09:06:26;9.60;99.90
22738;DHT22;11536;50.860;4.286;2022-11-24T09:08:55;9.70;99.90
22738;DHT22;11536;50.860;4.286;2022-11-24T09:11:22;9.60;99.90
22738;DHT22;11536;50.860;4.286;2022-11-24T09:13:48;9.70;99.90
22738;DHT22;11536;50.860;4.286;2022-11-24T09:16:19;9.70;99.90
22738;DHT22;11536;50.860;4.286;2022-11-24T09:18:45;9.80;99.90
22738;DHT22;11536;50.860;4.286;2022-11-24T09:21:13;9.80;99.90
22738;DHT22;11536;50.860;4.286;2022-11-24T09:23:39;9.80;99.90
22738;DHT22;11536;50.860;4.286;2022-11-24T09:26:07;9.80;99.90
22738;DHT22;11536;50.860;4.286;2022-11-24T09:28:33;9.80;99.90
22738;DHT22;11536;50.860;4.286;2022-11-24T09:31:03;9.80;99.90
22738;DHT22;11536;50.860;4.286;2022-11-24T09:33:30;9.90;99.90
22738;DHT22;11536;50.860;4.286;2022-11-24T09:35:56;9.90;99.90
22738;DHT22;11536;50.860;4.286;2022-11-24T09:38:22;9.90;99.90
22738;DHT22;11536;50.860;4.286;2022-11-24T09:40:49;10.00;99.90
22738;DHT22;11536;50.860;4.286;2022-11-24T09:44:29;10.00;99.90
22738;DHT22;11536;50.860;4.286;2022-11-24T09:49:32;10.10;99.90
22738;DHT22;11536;50.860;4.286;2022-11-24T09:52:02;10.20;99.90
22738;DHT22;11536;50.860;4.286;2022-11-24T09:54:33;10.20;99.90
22738;DHT22;11536;50.860;4.286;2022-11-24T09:57:00;10.20;99.90
22738;DHT22;11536;50.860;4.286;2022-11-24T09:59:29;10.30;99.90
22738;DHT22;11536;50.860;4.286;2022-11-24T10:01:55;10.30;99.90
22738;DHT22;11536;50.860;4.286;2022-11-24T10:04:34;10.30;99.90
22738;DHT22;11536;50.860;4.286;2022-11-24T10:23:56;10.60;99.90
22738;DHT22;11536;50.860;4.286;2022-11-24T10:27:01;10.60;99.90
22738;DHT22;11536;50.860;4.286;2022-11-24T10:29:30;10.70;99.90
22738;DHT22;11536;50.860;4.286;2022-11-24T10:31:57;10.70;99.90
22738;DHT22;11536;50.860;4.286;2022-11-24T10:34:35;10.80;99.90
22738;DHT22;11536;50.860;4.286;2022-11-24T10:42:35;10.90;99.90
22738;DHT22;11536;50.860;4.286;2022-11-24T10:45:12;10.90;99.90
22738;DHT22;11536;50.860;4.286;2022-11-24T10:47:39;11.00;99.90
22738;DHT22;11536;50.860;4.286;2022-11-24T10:52:43;11.10;99.90
22738;DHT22;11536;50.860;4.286;2022-11-24T10:55:11;11.10;99.90
22738;DHT22;11536;50.860;4.286;2022-11-24T10:57:39;11.20;99.90
22738;DHT22;11536;50.860;4.286;2022-11-24T11:03:08;11.20;99.90
22738;DHT22;11536;50.860;4.286;2022-11-24T11:05:39;11.20;99.90
22738;DHT22;11536;50.860;4.286;2022-11-24T11:10:40;11.30;99.90
22738;DHT22;11536;50.860;4.286;2022-11-24T11:13:27;11.30;99.90
22738;DHT22;11536;50.860;4.286;2022-11-24T11:15:57;11.40;99.90
22738;DHT22;11536;50.860;4.286;2022-11-24T11:18:30;11.40;99.90
22738;DHT22;11536;50.860;4.286;2022-11-24T11:20:59;11.40;99.90
22738;DHT22;11536;50.860;4.286;2022-11-24T11:23:31;11.40;99.90
22738;DHT22;11536;50.860;4.286;2022-11-24T11:26:17;11.50;99.90
22738;DHT22;11536;50.860;4.286;2022-11-24T11:31:32;11.60;99.90
22738;DHT22;11536;50.860;4.286;2022-11-24T11:33:59;11.60;99.90
22738;DHT22;11536;50.860;4.286;2022-11-24T11:36:26;11.60;99.90
22738;DHT22;11536;50.860;4.286;2022-11-24T11:38:52;11.70;99.90
22738;DHT22;11536;50.860;4.286;2022-11-24T11:41:20;11.70;99.90
22738;DHT22;11536;50.860;4.286;2022-11-24T11:43:53;11.80;99.90
22738;DHT22;11536;50.860;4.286;2022-11-24T11:46:23;11.80;99.90
22738;DHT22;11536;50.860;4.286;2022-11-24T11:48:48;11.90;99.90
22738;DHT22;11536;50.860;4.286;2022-11-24T12:05:29;12.60;99.90
22738;DHT22;11536;50.860;4.286;2022-11-24T12:22:54;12.80;99.90
22738;DHT22;11536;50.860;4.286;2022-11-24T12:25:45;12.80;99.90
22738;DHT22;11536;50.860;4.286;2022-11-24T12:32:00;12.80;99.90
22738;DHT22;11536;50.860;4.286;2022-11-24T12:34:22;12.80;99.90
22738;DHT22;11536;50.860;4.286;2022-11-24T12:37:33;13.00;99.90
22738;DHT22;11536;50.860;4.286;2022-11-24T12:40:45;13.10;99.90
22738;DHT22;11536;50.860;4.286;2022-11-24T12:43:31;13.20;99.90
22738;DHT22;11536;50.860;4.286;2022-11-24T12:46:24;13.30;99.90
22738;DHT22;11536;50.860;4.286;2022-11-24T12:49:28;13.30;99.90
22738;DHT22;11536;50.860;4.286;2022-11-24T12:52:29;13.40;99.90
22738;DHT22;11536;50.860;4.286;2022-11-24T12:54:57;13.40;99.90
22738;DHT22;11536;50.860;4.286;2022-11-24T12:57:34;13.40;99.90
22738;DHT22;11536;50.860;4.286;2022-11-24T13:08:28;13.50;99.90
22738;DHT22;11536;50.860;4.286;2022-11-24T13:14:02;13.60;99.90
22738;DHT22;11536;50.860;4.286;2022-11-24T13:16:29;13.60;99.90
22738;DHT22;11536;50.860;4.286;2022-11-24T13:19:23;13.60;99.90
22738;DHT22;11536;50.860;4.286;2022-11-24T13:21:49;13.60;99.90
22738;DHT22;11536;50.860;4.286;2022-11-24T13:24:21;13.50;99.90
22738;DHT22;11536;50.860;4.286;2022-11-24T13:27:37;13.50;99.90
22738;DHT22;11536;50.860;4.286;2022-11-24T13:29:39;13.40;99.90
22738;DHT22;11536;50.860;4.286;2022-11-24T13:39:49;13.30;99.90
22738;DHT22;11536;50.860;4.286;2022-11-24T13:42:16;13.20;99.90
22738;DHT22;11536;50.860;4.286;2022-11-24T13:44:46;13.10;99.90
22738;DHT22;11536;50.860;4.286;2022-11-24T13:47:42;13.10;99.90
22738;DHT22;11536;50.860;4.286;2022-11-24T13:55:28;13.00;99.90
22738;DHT22;11536;50.860;4.286;2022-11-24T13:58:30;13.00;99.90
22738;DHT22;11536;50.860;4.286;2022-11-24T14:03:37;12.90;99.90
22738;DHT22;11536;50.860;4.286;2022-11-24T14:06:03;12.90;99.90
22738;DHT22;11536;50.860;4.286;2022-11-24T14:08:34;12.90;99.90
22738;DHT22;11536;50.860;4.286;2022-11-24T14:11:02;12.90;99.90
22738;DHT22;11536;50.860;4.286;2022-11-24T14:13:30;12.80;99.90
22738;DHT22;11536;50.860;4.286;2022-11-24T14:18:41;12.80;99.90
22738;DHT22;11536;50.860;4.286;2022-11-24T14:23:46;12.80;99.90
22738;DHT22;11536;50.860;4.286;2022-11-24T14:26:20;12.70;99.90
22738;DHT22;11536;50.860;4.286;2022-11-24T14:28:47;12.80;99.90
22738;DHT22;11536;50.860;4.286;2022-11-24T14:31:25;12.70;99.90
22738;DHT22;11536;50.860;4.286;2022-11-24T14:34:16;12.70;99.90
22738;DHT22;11536;50.860;4.286;2022-11-24T14:36:42;12.70;99.90
22738;DHT22;11536;50.860;4.286;2022-11-24T14:39:16;12.70;99.90
22738;DHT22;11536;50.860;4.286;2022-11-24T14:41:48;12.70;99.90
22738;DHT22;11536;50.860;4.286;2022-11-24T14:46:44;12.60;99.90
22738;DHT22;11536;50.860;4.286;2022-11-24T14:49:19;12.60;99.90
22738;DHT22;11536;50.860;4.286;2022-11-24T14:52:02;12.60;99.90
22738;DHT22;11536;50.860;4.286;2022-11-24T14:54:29;12.60;99.90
22738;DHT22;11536;50.860;4.286;2022-11-24T14:57:05;12.60;99.90
22738;DHT22;11536;50.860;4.286;2022-11-24T14:59:32;12.60;99.90
22738;DHT22;11536;50.860;4.286;2022-11-24T15:01:59;12.50;99.90
22738;DHT22;11536;50.860;4.286;2022-11-24T15:04:29;12.60;99.90
22738;DHT22;11536;50.860;4.286;2022-11-24T15:07:05;12.50;99.90
22738;DHT22;11536;50.860;4.286;2022-11-24T15:09:49;12.50;99.90
22738;DHT22;11536;50.860;4.286;2022-11-24T15:12:38;12.50;99.90
22738;DHT22;11536;50.860;4.286;2022-11-24T15:15:05;12.40;99.90
22738;DHT22;11536;50.860;4.286;2022-11-24T15:20:32;12.40;99.90
22738;DHT22;11536;50.860;4.286;2022-11-24T15:25:53;12.30;99.90
22738;DHT22;11536;50.860;4.286;2022-11-24T15:28:19;12.30;99.90
22738;DHT22;11536;50.860;4.286;2022-11-24T15:31:08;12.30;99.90
22738;DHT22;11536;50.860;4.286;2022-11-24T15:33:34;12.30;99.90
22738;DHT22;11536;50.860;4.286;2022-11-24T15:36:00;12.20;99.90
22738;DHT22;11536;50.860;4.286;2022-11-24T15:38:26;12.20;99.90
22738;DHT22;11536;50.860;4.286;2022-11-24T15:40:53;12.20;99.90
22738;DHT22;11536;50.860;4.286;2022-11-24T15:45:55;12.20;99.90
22738;DHT22;11536;50.860;4.286;2022-11-24T15:48:20;12.10;99.90
22738;DHT22;11536;50.860;4.286;2022-11-24T15:50:46;12.10;99.90
22738;DHT22;11536;50.860;4.286;2022-11-24T15:55:47;12.10;99.90
22738;DHT22;11536;50.860;4.286;2022-11-24T15:58:13;12.10;99.90
22738;DHT22;11536;50.860;4.286;2022-11-24T16:00:40;12.00;99.90
22738;DHT22;11536;50.860;4.286;2022-11-24T16:03:05;12.00;99.90
22738;DHT22;11536;50.860;4.286;2022-11-24T16:05:31;11.90;99.90
22738;DHT22;11536;50.860;4.286;2022-11-24T16:07:57;11.90;99.90
22738;DHT22;11536;50.860;4.286;2022-11-24T16:10:29;11.90;99.90
22738;DHT22;11536;50.860;4.286;2022-11-24T16:13:05;11.90;99.90
22738;DHT22;11536;50.860;4.286;2022-11-24T16:15:31;11.80;99.90
22738;DHT22;11536;50.860;4.286;2022-11-24T16:17:57;11.80;99.90
22738;DHT22;11536;50.860;4.286;2022-11-24T16:20:24;11.70;99.90
22738;DHT22;11536;50.860;4.286;2022-11-24T16:22:50;11.80;99.90
22738;DHT22;11536;50.860;4.286;2022-11-24T16:25:16;11.70;99.90
22738;DHT22;11536;50.860;4.286;2022-11-24T16:27:41;11.70;99.90
22738;DHT22;11536;50.860;4.286;2022-11-24T16:30:08;11.70;99.90
22738;DHT22;11536;50.860;4.286;2022-11-24T16:32:35;11.70;99.90
22738;DHT22;11536;50.860;4.286;2022-11-24T16:35:01;11.60;99.90
22738;DHT22;11536;50.860;4.286;2022-11-24T16:37:26;11.70;99.90
22738;DHT22;11536;50.860;4.286;2022-11-24T16:39:52;11.60;99.90
22738;DHT22;11536;50.860;4.286;2022-11-24T16:42:18;11.60;99.90
22738;DHT22;11536;50.860;4.286;2022-11-24T16:44:43;11.50;99.90
22738;DHT22;11536;50.860;4.286;2022-11-24T16:47:09;11.50;99.90
22738;DHT22;11536;50.860;4.286;2022-11-24T16:49:37;11.50;99.90
22738;DHT22;11536;50.860;4.286;2022-11-24T16:52:03;11.50;99.90
22738;DHT22;11536;50.860;4.286;2022-11-24T16:54:29;11.50;99.90
22738;DHT22;11536;50.860;4.286;2022-11-24T16:56:56;11.50;99.90
22738;DHT22;11536;50.860;4.286;2022-11-24T16:59:22;11.40;99.90
22738;DHT22;11536;50.860;4.286;2022-11-24T17:01:47;11.40;99.90
22738;DHT22;11536;50.860;4.286;2022-11-24T17:04:15;11.40;99.90
22738;DHT22;11536;50.860;4.286;2022-11-24T17:06:41;11.40;99.90
22738;DHT22;11536;50.860;4.286;2022-11-24T17:09:06;11.40;99.90
22738;DHT22;11536;50.860;4.286;2022-11-24T17:11:32;11.30;99.90
22738;DHT22;11536;50.860;4.286;2022-11-24T17:13:58;11.30;99.90
22738;DHT22;11536;50.860;4.286;2022-11-24T17:16:24;11.30;99.90
22738;DHT22;11536;50.860;4.286;2022-11-24T17:18:50;11.30;99.90
22738;DHT22;11536;50.860;4.286;2022-11-24T17:21:22;11.20;99.90
22738;DHT22;11536;50.860;4.286;2022-11-24T17:23:55;11.20;99.90
22738;DHT22;11536;50.860;4.286;2022-11-24T17:26:21;11.20;99.90
22738;DHT22;11536;50.860;4.286;2022-11-24T17:28:46;11.10;99.90
22738;DHT22;11536;50.860;4.286;2022-11-24T17:31:29;11.10;99.90
22738;DHT22;11536;50.860;4.286;2022-11-24T17:34:01;11.10;99.90
22738;DHT22;11536;50.860;4.286;2022-11-24T17:36:27;11.10;99.90
22738;DHT22;11536;50.860;4.286;2022-11-24T17:38:54;11.00;99.90
22738;DHT22;11536;50.860;4.286;2022-11-24T17:41:21;11.10;99.90
22738;DHT22;11536;50.860;4.286;2022-11-24T17:43:48;11.00;99.90